createdAt,value
2023-05-21T05:50:11.889Z,100.00
2023-05-21T05:51:15.396Z,100.00
2023-05-21T05:52:18.248Z,100.00
2023-05-21T05:53:20.310Z,100.00
2023-05-21T05:54:23.219Z,100.00
2023-05-21T05:55:26.816Z,100.00
2023-05-21T05:56:30.514Z,100.00
2023-05-21T05:57:32.353Z,100.00
2023-05-21T05:58:39.359Z,100.00
2023-05-21T05:59:44.759Z,100.00
2023-05-21T06:00:48.132Z,99.47
2023-05-21T06:01:50.268Z,99.35
2023-05-21T06:02:53.242Z,99.02
2023-05-21T06:03:55.467Z,98.11
2023-05-21T06:04:59.312Z,97.08
2023-05-21T06:06:02.705Z,95.92
2023-05-21T06:07:07.322Z,94.85
2023-05-21T06:08:10.417Z,93.36
2023-05-21T06:09:13.164Z,93.76
2023-05-21T06:10:15.084Z,93.51
2023-05-21T06:11:19.014Z,92.88
2023-05-21T06:12:21.199Z,92.47
2023-05-21T06:13:23.936Z,91.44
2023-05-21T06:14:25.853Z,91.00
2023-05-21T06:15:28.791Z,90.31
2023-05-21T06:16:31.626Z,90.50
2023-05-21T06:17:34.698Z,89.60
2023-05-21T06:18:37.884Z,88.93
2023-05-21T06:19:40.754Z,89.80
2023-05-21T06:20:42.688Z,87.90
2023-05-21T06:21:46.986Z,87.83
2023-05-21T06:22:48.859Z,87.65
2023-05-21T06:23:51.955Z,87.41
2023-05-21T06:24:53.863Z,87.29
2023-05-21T06:25:56.658Z,88.25
2023-05-21T06:26:59.819Z,86.13
2023-05-21T06:28:02.880Z,84.91
2023-05-21T06:29:06.011Z,84.07
2023-05-21T06:30:09.552Z,84.65
2023-05-21T06:31:11.960Z,83.07
2023-05-21T06:32:15.280Z,82.84
2023-05-21T06:33:17.525Z,82.73
2023-05-21T06:34:20.535Z,81.82
2023-05-21T06:35:22.520Z,82.27
2023-05-21T06:36:30.324Z,82.10
2023-05-21T06:37:34.964Z,81.40
2023-05-21T06:38:37.275Z,81.41
2023-05-21T06:39:40.057Z,81.13
2023-05-21T06:40:44.573Z,81.04
2023-05-21T06:41:49.967Z,81.76
2023-05-21T06:43:12.654Z,82.24
2023-05-21T06:44:15.641Z,80.64
2023-05-21T06:45:38.597Z,82.42
2023-05-21T06:46:58.074Z,81.32
2023-05-21T06:48:00.919Z,81.94
2023-05-21T06:49:02.817Z,81.93
2023-05-21T06:50:06.195Z,81.29
2023-05-21T06:51:08.202Z,79.99
2023-05-21T06:52:11.210Z,81.06
2023-05-21T06:53:16.550Z,80.13
2023-05-21T06:54:20.781Z,81.23
2023-05-21T06:55:22.919Z,80.71
2023-05-21T06:56:38.199Z,80.60
2023-05-21T06:57:40.048Z,80.52
2023-05-21T06:58:46.249Z,81.72
2023-05-21T06:59:48.047Z,80.87
2023-05-21T07:00:51.093Z,80.27
2023-05-21T07:01:53.158Z,80.64
2023-05-21T07:02:56.279Z,81.12
2023-05-21T07:03:58.511Z,80.53
2023-05-21T07:05:01.811Z,80.44
2023-05-21T07:06:03.966Z,79.44
2023-05-21T07:07:06.987Z,79.86
2023-05-21T07:08:10.617Z,81.00
2023-05-21T07:09:15.944Z,79.58
2023-05-21T07:10:17.947Z,79.87
2023-05-21T07:11:21.262Z,79.36
2023-05-21T07:12:23.967Z,79.32
2023-05-21T07:13:27.144Z,79.06
2023-05-21T07:14:29.988Z,78.27
2023-05-21T07:15:31.848Z,77.39
2023-05-21T07:16:34.804Z,77.29
2023-05-21T07:17:38.548Z,77.54
2023-05-21T07:18:40.506Z,76.77
2023-05-21T07:19:43.419Z,78.74
2023-05-21T07:20:46.640Z,79.88
2023-05-21T07:21:51.559Z,79.61
2023-05-21T07:22:53.345Z,79.48
2023-05-21T07:23:56.592Z,79.78
2023-05-21T07:25:00.282Z,79.67
2023-05-21T07:26:03.164Z,80.21
2023-05-21T07:27:17.713Z,81.04
2023-05-21T07:28:28.037Z,80.83
2023-05-21T07:29:29.922Z,80.73
2023-05-21T07:30:32.808Z,80.70
2023-05-21T07:31:37.704Z,81.00
2023-05-21T07:32:41.306Z,81.54
2023-05-21T07:33:43.234Z,80.70
2023-05-21T07:34:47.957Z,80.85
2023-05-21T07:35:49.905Z,81.47
2023-05-21T07:36:52.632Z,81.04
2023-05-21T07:37:54.576Z,81.06
2023-05-21T07:38:57.671Z,80.03
2023-05-21T07:40:00.772Z,79.27
2023-05-21T07:41:04.099Z,79.83
2023-05-21T07:42:06.192Z,80.35
2023-05-21T07:43:08.901Z,79.32
2023-05-21T07:44:15.279Z,78.79
2023-05-21T07:45:19.494Z,78.68
2023-05-21T07:46:21.489Z,78.52
2023-05-21T07:47:28.671Z,78.09
2023-05-21T07:48:33.524Z,78.09
2023-05-21T07:49:37.568Z,78.72
2023-05-21T07:50:40.333Z,78.18
2023-05-21T07:51:42.635Z,78.32
2023-05-21T07:52:45.728Z,77.81
2023-05-21T07:53:47.730Z,77.67
2023-05-21T07:54:52.808Z,77.62
2023-05-21T07:55:57.914Z,77.82
2023-05-21T07:57:03.942Z,76.94
2023-05-21T07:58:23.363Z,76.79
2023-05-21T07:59:25.430Z,77.14
2023-05-21T08:00:28.372Z,77.76
2023-05-21T08:01:34.109Z,77.41
2023-05-21T08:02:36.352Z,77.03
2023-05-21T08:03:39.405Z,78.23
2023-05-21T08:04:42.474Z,78.96
2023-05-21T08:05:48.925Z,78.86
2023-05-21T08:06:52.009Z,78.94
2023-05-21T08:07:54.830Z,80.25
2023-05-21T08:08:57.471Z,79.38
2023-05-21T08:10:02.552Z,79.64
2023-05-21T08:11:06.414Z,78.98
2023-05-21T08:12:10.593Z,79.89
2023-05-21T08:13:13.006Z,78.58
2023-05-21T08:14:15.799Z,78.78
2023-05-21T08:15:17.694Z,78.14
2023-05-21T08:16:23.355Z,77.80
2023-05-21T08:17:29.464Z,76.90
2023-05-21T08:18:31.521Z,76.48
2023-05-21T08:19:34.440Z,76.24
2023-05-21T08:20:36.689Z,76.16
2023-05-21T08:21:39.511Z,77.37
2023-05-21T08:22:41.545Z,75.89
2023-05-21T08:23:44.582Z,76.66
2023-05-21T08:24:46.662Z,77.21
2023-05-21T08:25:49.426Z,76.24
2023-05-21T08:26:52.625Z,75.63
2023-05-21T08:27:56.313Z,75.00
2023-05-21T08:28:59.268Z,74.78
2023-05-21T08:30:01.135Z,75.19
2023-05-21T08:31:03.922Z,75.49
2023-05-21T08:32:11.588Z,75.42
2023-05-21T08:33:15.188Z,76.06
2023-05-21T08:34:18.642Z,75.06
2023-05-21T08:35:30.469Z,75.32
2023-05-21T08:36:39.264Z,74.28
2023-05-21T08:37:51.350Z,73.60
2023-05-21T08:39:03.425Z,73.19
2023-05-21T08:40:12.569Z,73.21
2023-05-21T08:41:22.216Z,72.76
2023-05-21T08:42:37.827Z,72.09
2023-05-21T08:43:41.368Z,72.39
2023-05-21T08:44:48.799Z,71.82
2023-05-21T08:45:54.805Z,71.42
2023-05-21T08:47:02.597Z,70.85
2023-05-21T08:48:05.696Z,71.79
2023-05-21T08:49:13.279Z,71.93
2023-05-21T08:50:18.284Z,72.51
2023-05-21T08:51:25.095Z,71.77
2023-05-21T08:52:28.182Z,73.15
2023-05-21T08:53:31.326Z,73.26
2023-05-21T08:54:36.916Z,73.14
2023-05-21T08:55:42.689Z,72.23
2023-05-21T08:56:47.067Z,72.50
2023-05-21T08:57:55.396Z,72.81
2023-05-21T08:58:59.701Z,72.54
2023-05-21T09:00:08.207Z,72.65
2023-05-21T09:01:12.311Z,72.49
2023-05-21T09:02:18.332Z,71.59
2023-05-21T09:03:22.579Z,71.34
2023-05-21T09:04:27.620Z,72.16
2023-05-21T09:05:32.009Z,69.99
2023-05-21T09:06:34.307Z,69.12
2023-05-21T09:07:43.876Z,69.13
2023-05-21T09:09:07.626Z,68.57
2023-05-21T09:10:19.379Z,66.23
2023-05-21T09:11:21.675Z,67.19
2023-05-21T09:12:30.532Z,67.98
2023-05-21T09:13:39.251Z,67.58
2023-05-21T09:14:49.104Z,66.59
2023-05-21T09:15:53.769Z,66.74
2023-05-21T09:16:58.081Z,66.94
2023-05-21T09:18:00.257Z,65.76
2023-05-21T09:19:14.014Z,65.87
2023-05-21T09:20:16.745Z,65.81
2023-05-21T09:21:27.225Z,64.60
2023-05-21T09:22:33.153Z,64.40
2023-05-21T09:23:38.732Z,66.03
2023-05-21T09:24:41.990Z,64.44
2023-05-21T09:25:47.349Z,65.46
2023-05-21T09:26:58.379Z,65.02
2023-05-21T09:28:01.671Z,65.76
2023-05-21T09:29:05.803Z,66.17
2023-05-21T09:30:11.269Z,66.97
2023-05-21T09:31:14.161Z,65.64
2023-05-21T09:32:17.791Z,65.51
2023-05-21T09:33:26.685Z,65.24
2023-05-21T09:34:28.974Z,66.00
2023-05-21T09:35:31.978Z,65.53
2023-05-21T09:36:38.421Z,63.35
2023-05-21T09:37:43.993Z,64.23
2023-05-21T09:38:46.372Z,61.73
2023-05-21T09:39:49.582Z,62.70
2023-05-21T09:40:51.663Z,62.98
2023-05-21T09:41:54.490Z,62.01
2023-05-21T09:42:56.318Z,61.32
2023-05-21T09:44:00.823Z,61.02
2023-05-21T09:45:05.004Z,61.80
2023-05-21T09:46:08.404Z,61.77
2023-05-21T09:47:11.059Z,61.33
2023-05-21T09:48:14.665Z,60.92
2023-05-21T09:49:26.169Z,61.05
2023-05-21T09:50:29.587Z,63.23
2023-05-21T09:51:32.420Z,62.31
2023-05-21T09:52:38.660Z,61.40
2023-05-21T09:53:48.671Z,59.94
2023-05-21T09:54:53.286Z,60.10
2023-05-21T09:55:58.001Z,59.77
2023-05-21T09:57:02.489Z,58.81
2023-05-21T09:58:05.905Z,59.70
2023-05-21T09:59:07.762Z,59.77
2023-05-21T10:00:20.123Z,59.94
2023-05-21T10:01:22.468Z,59.87
2023-05-21T10:02:26.831Z,59.25
2023-05-21T10:03:31.150Z,59.59
2023-05-21T10:04:34.374Z,59.60
2023-05-21T10:05:37.393Z,60.82
2023-05-21T10:06:44.003Z,60.21
2023-05-21T10:07:50.268Z,60.12
2023-05-21T10:08:55.886Z,61.17
2023-05-21T10:09:57.896Z,60.23
2023-05-21T10:11:02.087Z,60.86
2023-05-21T10:12:04.591Z,60.13
2023-05-21T10:13:09.544Z,61.14
2023-05-21T10:14:16.373Z,60.49
2023-05-21T10:15:25.124Z,60.76
2023-05-21T10:16:27.957Z,61.12
2023-05-21T10:17:30.852Z,60.38
2023-05-21T10:18:34.714Z,59.94
2023-05-21T10:19:38.647Z,61.36
2023-05-21T10:20:42.090Z,61.68
2023-05-21T10:21:45.812Z,60.24
2023-05-21T10:22:49.298Z,59.34
2023-05-21T10:23:51.360Z,60.53
2023-05-21T10:24:55.034Z,60.74
2023-05-21T10:25:59.500Z,61.48
2023-05-21T10:27:02.431Z,60.64
2023-05-21T10:28:06.872Z,60.67
2023-05-21T10:29:10.019Z,59.55
2023-05-21T10:30:13.120Z,60.08
2023-05-21T10:31:16.635Z,58.41
2023-05-21T10:32:22.502Z,58.42
2023-05-21T10:33:26.934Z,58.17
2023-05-21T10:34:32.075Z,56.88
2023-05-21T10:35:34.432Z,56.07
2023-05-21T10:36:38.888Z,57.13
2023-05-21T10:37:43.426Z,55.64
2023-05-21T10:38:47.737Z,54.42
2023-05-21T10:39:52.761Z,55.60
2023-05-21T10:40:56.735Z,55.65
2023-05-21T10:42:11.008Z,55.52
2023-05-21T10:43:31.594Z,55.90
2023-05-21T10:44:45.250Z,55.58
2023-05-21T10:46:07.005Z,57.14
2023-05-21T10:47:29.036Z,56.80
2023-05-21T10:48:50.855Z,56.47
2023-05-21T10:50:09.308Z,56.71
2023-05-21T10:51:21.091Z,56.86
2023-05-21T10:52:40.232Z,55.51
2023-05-21T10:54:05.137Z,54.41
2023-05-21T10:55:17.885Z,54.31
2023-05-21T10:56:25.368Z,53.89
2023-05-21T10:57:46.457Z,54.42
2023-05-21T10:59:05.596Z,53.65
2023-05-21T11:00:09.564Z,54.78
2023-05-21T11:01:13.675Z,54.55
2023-05-21T11:02:19.565Z,54.58
2023-05-21T11:03:23.598Z,54.20
2023-05-21T11:04:27.100Z,54.67
2023-05-21T11:05:41.901Z,54.92
2023-05-21T11:06:48.494Z,56.78
2023-05-21T11:07:56.271Z,57.17
2023-05-21T11:09:01.957Z,56.01
2023-05-21T11:10:28.459Z,55.11
2023-05-21T11:11:42.880Z,55.09
2023-05-21T11:13:07.925Z,56.13
2023-05-21T11:14:26.310Z,55.18
2023-05-21T11:15:29.056Z,55.63
2023-05-21T11:16:31.808Z,55.21
2023-05-21T11:17:40.000Z,54.83
2023-05-21T11:18:58.491Z,54.18
2023-05-21T11:20:07.238Z,53.16
2023-05-21T11:21:10.378Z,53.46
2023-05-21T11:22:23.174Z,53.94
2023-05-21T11:23:48.713Z,53.95
2023-05-21T11:24:52.338Z,53.49
2023-05-21T11:26:01.300Z,52.61
2023-05-21T11:27:05.613Z,53.86
2023-05-21T11:28:09.534Z,53.45
2023-05-21T11:29:11.787Z,53.13
2023-05-21T11:30:17.795Z,53.84
2023-05-21T11:31:23.858Z,53.97
2023-05-21T11:32:26.700Z,52.18
2023-05-21T11:33:29.803Z,51.17
2023-05-21T11:34:39.353Z,51.40
2023-05-21T11:35:59.256Z,51.40
2023-05-21T11:37:25.096Z,50.88
2023-05-21T11:38:29.396Z,50.17
2023-05-21T11:39:40.260Z,50.36
2023-05-21T11:40:54.616Z,51.18
2023-05-21T11:41:59.107Z,51.14
2023-05-21T11:43:03.344Z,50.25
2023-05-21T11:44:08.651Z,49.71
2023-05-21T11:45:11.874Z,50.76
2023-05-21T11:46:14.390Z,50.96
2023-05-21T11:47:19.498Z,51.29
2023-05-21T11:48:27.247Z,51.80
2023-05-21T11:49:31.527Z,52.54
2023-05-21T11:50:35.296Z,52.07
2023-05-21T11:51:37.314Z,51.84
2023-05-21T11:52:41.821Z,52.97
2023-05-21T11:53:44.484Z,52.31
2023-05-21T11:54:50.538Z,53.03
2023-05-21T11:55:57.595Z,52.28
2023-05-21T11:57:00.890Z,52.65
2023-05-21T11:58:04.173Z,52.64
2023-05-21T11:59:14.259Z,53.01
2023-05-21T12:00:18.089Z,53.16
2023-05-21T12:01:22.825Z,53.45
2023-05-21T12:02:27.236Z,53.82
2023-05-21T12:03:30.417Z,53.39
2023-05-21T12:04:36.495Z,53.16
2023-05-21T12:05:46.136Z,54.19
2023-05-21T12:06:48.218Z,55.03
2023-05-21T12:07:51.116Z,53.87
2023-05-21T12:09:00.624Z,54.34
2023-05-21T12:10:03.690Z,54.69
2023-05-21T12:11:05.645Z,54.57
2023-05-21T12:12:09.993Z,55.78
2023-05-21T12:13:11.809Z,55.28
2023-05-21T12:14:15.140Z,54.55
2023-05-21T12:15:18.200Z,55.61
2023-05-21T12:16:21.320Z,54.57
2023-05-21T12:17:24.382Z,54.64
2023-05-21T12:18:27.661Z,55.38
2023-05-21T12:19:34.282Z,55.94
2023-05-21T12:20:37.423Z,55.67
2023-05-21T12:21:39.502Z,55.76
2023-05-21T12:22:44.110Z,55.89
2023-05-21T12:23:46.188Z,54.35
2023-05-21T12:24:49.373Z,54.73
2023-05-21T12:25:51.414Z,55.46
2023-05-21T12:26:55.036Z,56.42
2023-05-21T12:27:58.914Z,55.13
2023-05-21T12:29:02.098Z,56.54
2023-05-21T12:30:05.384Z,55.63
2023-05-21T12:31:07.170Z,54.50
2023-05-21T12:32:12.559Z,55.33
2023-05-21T12:33:17.890Z,56.21
2023-05-21T12:34:43.344Z,55.65
2023-05-21T12:35:48.697Z,55.85
2023-05-21T12:36:51.646Z,55.71
2023-05-21T12:37:54.378Z,54.09
2023-05-21T12:38:57.590Z,54.57
2023-05-21T12:40:01.920Z,54.17
2023-05-21T12:41:04.938Z,54.57
2023-05-21T12:42:08.405Z,54.92
2023-05-21T12:43:10.226Z,54.27
2023-05-21T12:44:12.974Z,54.25
2023-05-21T12:45:15.004Z,53.19
2023-05-21T12:46:18.854Z,53.40
2023-05-21T12:47:24.035Z,53.72
2023-05-21T12:48:27.077Z,52.47
2023-05-21T12:49:36.574Z,53.06
2023-05-21T12:50:42.144Z,52.48
2023-05-21T12:51:45.476Z,53.20
2023-05-21T12:52:48.482Z,52.72
2023-05-21T12:53:51.260Z,51.85
2023-05-21T12:54:54.364Z,51.80
2023-05-21T12:55:57.087Z,51.98
2023-05-21T12:57:06.204Z,52.09
2023-05-21T12:58:09.439Z,51.33
2023-05-21T12:59:14.424Z,51.65
2023-05-21T13:00:24.860Z,51.57
2023-05-21T13:01:26.679Z,51.95
2023-05-21T13:02:32.399Z,51.44
2023-05-21T13:03:34.460Z,50.34
2023-05-21T13:04:37.384Z,49.64
2023-05-21T13:05:42.424Z,50.87
2023-05-21T13:06:44.448Z,50.13
2023-05-21T13:07:48.178Z,51.02
2023-05-21T13:08:50.138Z,50.49
2023-05-21T13:09:53.455Z,49.25
2023-05-21T13:10:55.606Z,49.96
2023-05-21T13:11:58.328Z,49.83
2023-05-21T13:13:01.695Z,51.26
2023-05-21T13:14:03.554Z,51.34
2023-05-21T13:15:07.972Z,50.58
2023-05-21T13:16:10.760Z,50.37
2023-05-21T13:17:12.743Z,49.83
2023-05-21T13:18:16.208Z,49.06
2023-05-21T13:19:18.215Z,48.54
2023-05-21T13:20:21.806Z,48.53
2023-05-21T13:21:25.338Z,49.14
2023-05-21T13:22:28.134Z,49.66
2023-05-21T13:23:30.990Z,48.62
2023-05-21T13:24:32.909Z,48.72
2023-05-21T13:25:35.629Z,47.63
2023-05-21T13:26:37.608Z,48.16
2023-05-21T13:27:40.572Z,47.52
2023-05-21T13:28:43.423Z,47.37
2023-05-21T13:29:45.497Z,47.96
2023-05-21T13:30:48.382Z,47.88
2023-05-21T13:31:50.216Z,48.35
2023-05-21T13:32:53.286Z,48.51
2023-05-21T13:33:55.342Z,47.71
2023-05-21T13:34:58.578Z,47.74
2023-05-21T13:36:01.743Z,47.29
2023-05-21T13:37:05.043Z,46.98
2023-05-21T13:38:10.131Z,47.39
2023-05-21T13:39:12.401Z,48.48
2023-05-21T13:40:16.724Z,48.54
2023-05-21T13:41:19.610Z,47.30
2023-05-21T13:42:22.541Z,48.13
2023-05-21T13:43:24.509Z,48.96
2023-05-21T13:44:27.254Z,48.42
2023-05-21T13:45:30.080Z,49.21
2023-05-21T13:46:32.006Z,49.15
2023-05-21T13:47:37.463Z,49.85
2023-05-21T13:48:43.196Z,49.32
2023-05-21T13:49:45.040Z,47.72
2023-05-21T13:50:47.880Z,48.60
2023-05-21T13:51:49.757Z,47.86
2023-05-21T13:52:54.137Z,47.30
2023-05-21T13:53:56.837Z,47.42
2023-05-21T13:54:59.856Z,48.38
2023-05-21T13:56:01.786Z,48.73
2023-05-21T13:57:05.024Z,49.24
2023-05-21T13:58:07.890Z,49.27
2023-05-21T13:59:09.920Z,49.85
2023-05-21T14:00:16.233Z,49.16
2023-05-21T14:01:19.207Z,48.85
2023-05-21T14:02:22.238Z,49.00
2023-05-21T14:03:25.152Z,48.79
2023-05-21T14:04:27.009Z,48.85
2023-05-21T14:05:29.750Z,48.17
2023-05-21T14:06:33.096Z,48.32
2023-05-21T14:07:35.018Z,47.83
2023-05-21T14:08:39.340Z,48.87
2023-05-21T14:09:42.267Z,49.40
2023-05-21T14:10:45.033Z,49.22
2023-05-21T14:11:47.761Z,49.61
2023-05-21T14:12:49.690Z,49.36
2023-05-21T14:13:52.561Z,49.30
2023-05-21T14:14:54.420Z,49.26
2023-05-21T14:15:57.123Z,49.13
2023-05-21T14:16:59.192Z,49.17
2023-05-21T14:18:02.256Z,49.02
2023-05-21T14:19:04.162Z,49.45
2023-05-21T14:20:08.043Z,48.89
2023-05-21T14:21:10.924Z,48.76
2023-05-21T14:22:13.648Z,47.68
2023-05-21T14:23:16.620Z,48.12
2023-05-21T14:24:20.185Z,48.57
2023-05-21T14:25:23.060Z,49.41
2023-05-21T14:26:25.083Z,48.43
2023-05-21T14:27:27.812Z,49.47
2023-05-21T14:28:29.736Z,49.37
2023-05-21T14:29:33.312Z,50.34
2023-05-21T14:30:35.310Z,50.29
2023-05-21T14:31:39.201Z,50.20
2023-05-21T14:32:42.025Z,49.58
2023-05-21T14:33:43.916Z,48.81
2023-05-21T14:34:48.785Z,50.03
2023-05-21T14:35:51.559Z,49.78
2023-05-21T14:36:53.404Z,49.89
2023-05-21T14:37:56.275Z,49.84
2023-05-21T14:38:58.164Z,50.87
2023-05-21T14:40:02.395Z,49.22
2023-05-21T14:41:06.335Z,48.99
2023-05-21T14:42:08.148Z,49.06
2023-05-21T14:43:11.022Z,48.48
2023-05-21T14:44:12.955Z,48.80
2023-05-21T14:45:19.220Z,50.08
2023-05-21T14:46:21.792Z,49.79
2023-05-21T14:47:24.688Z,49.52
2023-05-21T14:48:27.385Z,48.98
2023-05-21T14:49:29.279Z,49.05
2023-05-21T14:50:32.046Z,49.77
2023-05-21T14:51:33.872Z,48.84
2023-05-21T14:52:36.725Z,48.53
2023-05-21T14:53:39.827Z,47.86
2023-05-21T14:54:41.752Z,48.42
2023-05-21T14:55:46.707Z,48.87
2023-05-21T14:56:48.551Z,48.73
2023-05-21T14:57:51.420Z,49.59
2023-05-21T14:58:53.314Z,49.57
2023-05-21T14:59:56.248Z,49.96
2023-05-21T15:00:59.016Z,49.62
2023-05-21T15:02:01.188Z,48.85
2023-05-21T15:03:04.994Z,48.61
2023-05-21T15:04:07.829Z,48.97
2023-05-21T15:05:11.080Z,49.30
2023-05-21T15:06:13.870Z,49.29
2023-05-21T15:07:15.714Z,49.09
2023-05-21T15:08:18.740Z,48.28
2023-05-21T15:09:20.745Z,48.00
2023-05-21T15:10:24.391Z,48.67
2023-05-21T15:11:28.014Z,49.18
2023-05-21T15:12:30.877Z,48.65
2023-05-21T15:13:33.630Z,47.75
2023-05-21T15:14:36.574Z,47.07
2023-05-21T15:15:38.706Z,46.69
2023-05-21T15:16:41.730Z,47.17
2023-05-21T15:17:44.112Z,48.70
2023-05-21T15:18:47.046Z,48.29
2023-05-21T15:19:49.753Z,47.31
2023-05-21T15:20:51.626Z,46.52
2023-05-21T15:21:54.447Z,46.35
2023-05-21T15:23:15.428Z,46.63
2023-05-21T15:24:18.965Z,46.50
2023-05-21T15:25:21.976Z,45.26
2023-05-21T15:26:25.342Z,45.60
2023-05-21T15:27:29.320Z,46.99
2023-05-21T15:28:31.280Z,45.06
2023-05-21T15:29:34.007Z,45.84
2023-05-21T15:30:36.099Z,44.93
2023-05-21T15:31:39.436Z,45.61
2023-05-21T15:32:42.585Z,47.10
2023-05-21T15:33:44.554Z,47.28
2023-05-21T15:34:47.705Z,47.17
2023-05-21T15:35:49.749Z,46.33
2023-05-21T15:36:52.624Z,45.38
2023-05-21T15:37:54.454Z,45.21
2023-05-21T15:38:57.282Z,45.58
2023-05-21T15:40:02.135Z,46.00
2023-05-21T15:41:06.410Z,45.36
2023-05-21T15:42:09.097Z,45.02
2023-05-21T15:43:13.150Z,44.55
2023-05-21T15:44:15.323Z,43.83
2023-05-21T15:45:18.330Z,44.76
2023-05-21T15:46:20.284Z,43.87
2023-05-21T15:47:23.250Z,43.51
2023-05-21T15:48:26.277Z,43.89
2023-05-21T15:49:28.085Z,43.73
2023-05-21T15:50:31.013Z,44.83
2023-05-21T15:51:32.928Z,44.20
2023-05-21T15:52:35.839Z,44.32
2023-05-21T15:53:37.645Z,44.03
2023-05-21T15:54:40.814Z,43.26
2023-05-21T15:55:44.682Z,44.46
2023-05-21T15:56:46.690Z,43.89
2023-05-21T15:57:49.483Z,44.16
2023-05-21T15:58:52.703Z,42.81
2023-05-21T15:59:56.695Z,43.78
2023-05-21T16:00:59.057Z,44.09
2023-05-21T16:02:02.931Z,43.03
2023-05-21T16:03:05.662Z,43.76
2023-05-21T16:04:09.481Z,43.19
2023-05-21T16:05:12.434Z,43.27
2023-05-21T16:06:16.185Z,43.72
2023-05-21T16:07:20.022Z,43.93
2023-05-21T16:08:22.105Z,43.47
2023-05-21T16:09:25.249Z,42.64
2023-05-21T16:10:27.546Z,43.72
2023-05-21T16:11:31.217Z,44.05
2023-05-21T16:12:33.739Z,44.19
2023-05-21T16:13:37.372Z,44.19
2023-05-21T16:14:41.143Z,44.06
2023-05-21T16:15:45.059Z,44.20
2023-05-21T16:16:47.319Z,44.28
2023-05-21T16:17:50.623Z,43.24
2023-05-21T16:18:53.121Z,43.20
2023-05-21T16:19:56.013Z,43.07
2023-05-21T16:20:58.112Z,43.28
2023-05-21T16:22:01.984Z,42.77
2023-05-21T16:23:06.274Z,43.63
2023-05-21T16:24:09.141Z,43.49
2023-05-21T16:25:10.990Z,43.10
2023-05-21T16:26:13.893Z,43.17
2023-05-21T16:27:15.845Z,42.87
2023-05-21T16:28:18.708Z,43.00
2023-05-21T16:29:22.179Z,43.46
2023-05-21T16:30:25.972Z,44.24
2023-05-21T16:31:28.853Z,43.57
2023-05-21T16:32:31.215Z,43.54
2023-05-21T16:33:34.570Z,44.62
2023-05-21T16:34:37.007Z,43.99
2023-05-21T16:35:43.352Z,44.06
2023-05-21T16:36:45.946Z,44.03
2023-05-21T16:37:49.822Z,42.79
2023-05-21T16:38:53.148Z,42.78
2023-05-21T16:39:56.619Z,43.01
2023-05-21T16:40:59.384Z,43.62
2023-05-21T16:42:03.035Z,42.81
2023-05-21T16:43:05.490Z,43.16
2023-05-21T16:44:09.149Z,42.39
2023-05-21T16:45:19.795Z,44.04
2023-05-21T16:46:24.691Z,43.31
2023-05-21T16:47:27.413Z,42.92
2023-05-21T16:48:31.300Z,43.23
2023-05-21T16:49:34.042Z,43.84
2023-05-21T16:50:37.857Z,44.20
2023-05-21T16:51:40.434Z,44.04
2023-05-21T16:52:44.057Z,44.48
2023-05-21T16:53:46.686Z,44.07
2023-05-21T16:54:50.614Z,44.00
2023-05-21T16:55:53.431Z,42.24
2023-05-21T16:56:57.038Z,43.78
2023-05-21T16:57:59.806Z,43.31
2023-05-21T16:59:03.524Z,43.36
2023-05-21T17:00:08.028Z,44.00
2023-05-21T17:01:11.937Z,43.75
2023-05-21T17:02:16.365Z,43.50
2023-05-21T17:03:20.037Z,43.41
2023-05-21T17:04:22.744Z,42.27
2023-05-21T17:05:26.640Z,41.90
2023-05-21T17:06:29.536Z,41.70
2023-05-21T17:07:33.420Z,42.58
2023-05-21T17:08:36.978Z,42.92
2023-05-21T17:09:39.532Z,43.74
2023-05-21T17:10:43.270Z,44.16
2023-05-21T17:11:46.052Z,43.81
2023-05-21T17:12:49.893Z,44.47
2023-05-21T17:13:52.574Z,44.13
2023-05-21T17:14:56.308Z,43.87
2023-05-21T17:15:59.204Z,43.93
2023-05-21T17:17:02.997Z,44.54
2023-05-21T17:18:08.072Z,44.02
2023-05-21T17:19:10.751Z,43.05
2023-05-21T17:20:14.876Z,43.54
2023-05-21T17:21:18.745Z,43.78
2023-05-21T17:22:21.553Z,44.36
2023-05-21T17:23:25.165Z,44.03
2023-05-21T17:24:28.791Z,44.00
2023-05-21T17:25:34.310Z,44.46
2023-05-21T17:26:38.354Z,43.37
2023-05-21T17:27:41.961Z,43.65
2023-05-21T17:28:45.276Z,44.72
2023-05-21T17:29:47.160Z,44.47
2023-05-21T17:30:50.552Z,44.85
2023-05-21T17:31:53.513Z,44.92
2023-05-21T17:32:55.392Z,46.24
2023-05-21T17:34:00.339Z,46.08
2023-05-21T17:35:02.370Z,47.23
2023-05-21T17:36:05.524Z,47.12
2023-05-21T17:37:09.565Z,46.73
2023-05-21T17:38:12.383Z,47.69
2023-05-21T17:39:14.218Z,48.85
2023-05-21T17:40:20.354Z,49.18
2023-05-21T17:41:22.267Z,49.21
2023-05-21T17:42:25.113Z,48.92
2023-05-21T17:43:28.153Z,49.23
2023-05-21T17:44:29.948Z,49.14
2023-05-21T17:45:32.765Z,49.76
2023-05-21T17:46:34.656Z,50.85
2023-05-21T17:47:37.530Z,50.68
2023-05-21T17:48:39.494Z,51.84
2023-05-21T17:49:43.698Z,52.73
2023-05-21T17:50:48.008Z,53.02
2023-05-21T17:51:50.831Z,53.85
2023-05-21T17:52:52.626Z,53.80
2023-05-21T17:53:55.438Z,53.69
2023-05-21T17:54:57.408Z,54.52
2023-05-21T17:56:00.394Z,54.45
2023-05-21T17:57:02.384Z,55.17
2023-05-21T17:58:05.465Z,56.11
2023-05-21T17:59:07.786Z,56.85
2023-05-21T18:00:11.182Z,58.04
2023-05-21T18:01:14.560Z,57.75
2023-05-21T18:02:17.405Z,57.15
2023-05-21T18:03:19.779Z,57.13
2023-05-21T18:04:22.754Z,57.93
2023-05-21T18:05:26.937Z,58.01
2023-05-21T18:06:29.844Z,58.13
2023-05-21T18:07:31.887Z,59.08
2023-05-21T18:08:34.684Z,58.63
2023-05-21T18:09:36.512Z,59.48
2023-05-21T18:10:39.323Z,59.52
2023-05-21T18:11:43.389Z,59.44
2023-05-21T18:12:46.477Z,60.35
2023-05-21T18:13:48.428Z,59.74
2023-05-21T18:14:51.092Z,60.98
2023-05-21T18:15:52.927Z,60.41
2023-05-21T18:16:55.998Z,61.43
2023-05-21T18:17:57.969Z,62.49
2023-05-21T18:19:02.131Z,63.19
2023-05-21T18:20:04.658Z,63.44
2023-05-21T18:21:08.774Z,64.02
2023-05-21T18:22:12.143Z,65.35
2023-05-21T18:23:14.066Z,65.80
2023-05-21T18:24:16.948Z,65.52
2023-05-21T18:25:18.903Z,65.69
2023-05-21T18:26:22.169Z,66.37
2023-05-21T18:27:24.034Z,66.49
2023-05-21T18:28:27.589Z,65.51
2023-05-21T18:29:30.388Z,64.72
2023-05-21T18:30:32.308Z,65.38
2023-05-21T18:31:35.354Z,65.21
2023-05-21T18:32:38.968Z,65.25
2023-05-21T18:33:41.924Z,65.22
2023-05-21T18:34:43.989Z,65.33
2023-05-21T18:35:46.792Z,66.90
2023-05-21T18:36:49.990Z,67.50
2023-05-21T18:37:53.434Z,68.05
2023-05-21T18:38:55.254Z,68.34
2023-05-21T18:39:58.010Z,68.83
2023-05-21T18:41:00.049Z,68.93
2023-05-21T18:42:12.781Z,69.33
2023-05-21T18:43:17.779Z,69.09
2023-05-21T18:44:19.638Z,70.22
2023-05-21T18:45:22.503Z,69.89
2023-05-21T18:46:24.372Z,70.78
2023-05-21T18:47:27.220Z,71.56
2023-05-21T18:48:29.054Z,71.60
2023-05-21T18:49:33.924Z,72.19
2023-05-21T18:51:39.784Z,73.60
2023-05-21T18:52:42.922Z,73.36
2023-05-21T18:53:45.744Z,74.40
2023-05-21T18:54:47.626Z,74.54
2023-05-21T18:55:50.732Z,75.05
2023-05-21T18:56:52.743Z,76.02
2023-05-21T18:57:56.003Z,75.36
2023-05-21T18:58:57.951Z,76.00
2023-05-21T19:00:00.864Z,76.37
2023-05-21T19:01:03.720Z,77.47
2023-05-21T19:02:05.753Z,77.15
2023-05-21T19:03:08.744Z,77.28
2023-05-21T19:04:12.594Z,77.21
2023-05-21T19:05:15.739Z,77.46
2023-05-21T19:06:23.826Z,77.79
2023-05-21T19:07:25.787Z,76.44
2023-05-21T19:08:29.747Z,76.93
2023-05-21T19:09:31.522Z,77.74
2023-05-21T19:10:34.352Z,78.16
2023-05-21T19:11:37.439Z,78.75
2023-05-21T19:12:41.876Z,78.46
2023-05-21T19:13:43.712Z,79.24
2023-05-21T19:14:46.524Z,79.99
2023-05-21T19:15:48.901Z,80.07
2023-05-21T19:16:51.750Z,80.35
2023-05-21T19:17:53.762Z,81.05
2023-05-21T19:18:56.638Z,80.81
2023-05-21T19:19:58.557Z,81.32
2023-05-21T19:21:01.504Z,80.88
2023-05-21T19:22:04.494Z,81.12
2023-05-21T19:23:06.539Z,81.51
2023-05-21T19:24:10.803Z,81.09
2023-05-21T19:25:12.659Z,81.57
2023-05-21T19:26:15.433Z,81.27
2023-05-21T19:27:18.127Z,82.09
2023-05-21T19:28:21.170Z,82.22
2023-05-21T19:29:23.159Z,82.93
2023-05-21T19:30:25.926Z,83.21
2023-05-21T19:31:28.779Z,82.75
2023-05-21T19:32:31.478Z,82.56
2023-05-21T19:33:34.922Z,82.92
2023-05-21T19:34:37.299Z,83.72
2023-05-21T19:35:41.828Z,83.98
2023-05-21T19:36:52.860Z,84.56
2023-05-21T19:38:00.233Z,85.34
2023-05-21T19:39:04.991Z,84.93